Pilgrim Gardens, Pennsylvania
Current Conditions -  °F | °C
As of 3:16 PM on Wednesday 26 Nov 2014 (Local Time) from KPHL Reporting Station
Light Rain Light Rain  
Wind Chill: 27°   Ceiling: 1100
Heat Index: 37°   Visibility: 7mi
Dew Point: 33°   Wind: 17mph
Humidity: 86%   Direction: 10°N
Pressure: 29.81"   Gusts: NA
Location:  39.9501°N, 75.304°W
Report Text: KPHL 262016Z 01015KT 7SM -RA BKN011 OVC015 03/01 A2981 RMK AO2 PRESFR P0002 T00280006 $
Loading
Personal Weather Stations






























Interactive Weather Map New forecast layout! Learn more

10-Day Weather Forecast

Advertisements
Track Severe Weather on mobile